Time;durP1;ratioP1;P1;durP2;ratioP2;P2;SDS_P1;SDS_P2;PMS_P1;PMS_P2;Temp;Humidity;BMP_temperature;BMP_pressure;BME280_temperature;BME280_humidity;BME280_pressure;Samples;Min_cycle;Max_cycle;Signal;HPM_P1;HPM_P2
2022/04/21 00:00:36;;;;;;;591.52;267.18;;;;;;;20.67;49.58;98217.89;1797783;79;27368;-89
2022/04/21 00:03:04;;;;;;;591.75;268.73;;;;;;;20.67;49.57;98220.06;1797623;79;25950;-89
2022/04/21 00:05:31;;;;;;;593.02;267.23;;;;;;;20.67;49.57;98220.06;1797780;79;25452;-89
2022/04/21 00:07:58;;;;;;;580.13;264.90;;;;;;;20.67;49.58;98217.89;1797813;79;25753;-89
2022/04/21 00:10:25;;;;;;;575.95;263.40;;;;;;;20.68;49.58;98215.30;1797888;79;25476;-89
2022/04/21 00:12:52;;;;;;;576.40;264.70;;;;;;;20.69;49.57;98214.91;1797716;79;27275;-89
2022/04/21 00:15:19;;;;;;;574.80;264.40;;;;;;;20.68;49.59;98218.89;1797663;79;25735;-89
2022/04/21 00:17:45;;;;;;;572.50;262.27;;;;;;;20.69;49.58;98219.67;1797757;79;25596;-90
2022/04/21 00:20:12;;;;;;;567.98;258.75;;;;;;;20.69;49.58;98218.27;1797883;79;25696;-90
2022/04/21 00:25:23;;;;;;;559.25;252.75;;;;;;;20.70;49.57;98214.32;1792949;80;25695;-90
2022/04/21 00:27:49;;;;;;;565.47;255.72;;;;;;;20.68;49.57;98213.33;1793165;80;25407;-90
2022/04/21 00:30:17;;;;;;;562.92;255.72;;;;;;;20.68;49.58;98209.14;1793385;80;25419;-90
2022/04/21 00:32:44;;;;;;;561.38;252.85;;;;;;;20.69;49.58;98209.34;1793194;80;26465;-90
2022/04/21 00:35:12;;;;;;;548.00;248.18;;;;;;;20.69;49.59;98206.55;1792717;80;25641;-89
2022/04/21 00:37:48;;;;;;;546.58;245.80;;;;;;;20.70;49.59;98207.36;1793377;80;27477;-90
2022/04/21 00:40:16;;;;;;;543.48;246.60;;;;;;;20.68;49.60;98209.73;1793212;80;25430;-90
2022/04/21 00:42:42;;;;;;;551.58;243.63;;;;;;;20.71;49.61;98215.91;1793300;80;25652;-89
2022/04/21 00:45:10;;;;;;;554.25;249.12;;;;;;;20.71;49.59;98213.70;1793224;80;26456;-90
2022/04/21 00:47:42;;;;;;;543.52;242.77;;;;;;;20.70;49.59;98217.11;1791142;80;25557;-89
2022/04/21 00:50:18;;;;;;;;;;;;;;;20.70;49.58;98212.93;1794966;79;25651;-90
2022/04/21 00:52:49;;;;;;;522.55;230.67;;;;;;;20.70;49.59;98218.50;1793240;80;25415;-89
2022/04/21 00:55:20;;;;;;;531.80;231.32;;;;;;;20.68;49.61;98210.54;1792774;80;26544;-89
2022/04/21 00:57:48;;;;;;;;;;;;;;;20.68;49.65;98205.55;1796025;80;25866;-90
2022/04/21 01:00:19;;;;;;;515.88;225.38;;;;;;;20.67;49.62;98210.31;1793419;79;25649;-90
2022/04/21 01:02:53;;;;;;;523.45;229.13;;;;;;;20.67;49.67;98217.27;1793165;80;27378;-90
2022/04/21 01:05:25;;;;;;;528.38;232.20;;;;;;;20.67;49.66;98213.72;1791489;79;25775;-90
2022/04/21 01:07:47;;;;;;;524.17;228.05;;;;;;;20.66;49.68;98217.67;1792195;79;25660;-90
2022/04/21 01:10:13;;;;;;;516.98;228.73;;;;;;;20.66;49.69;98219.87;1793234;80;25729;-90
2022/04/21 01:12:43;;;;;;;518.75;229.82;;;;;;;20.66;49.69;98217.67;1793452;80;25456;-90
2022/04/21 01:15:10;;;;;;;514.65;227.45;;;;;;;20.66;49.71;98216.28;1793382;80;27446;-90
2022/04/21 01:17:39;;;;;;;523.58;225.47;;;;;;;20.66;49.73;98222.66;1793005;80;25644;-89
2022/04/21 01:20:09;;;;;;;514.02;224.98;;;;;;;20.66;49.74;98223.23;1793085;80;25454;-89
2022/04/21 01:22:42;;;;;;;506.97;225.95;;;;;;;20.65;49.76;98221.66;1793212;79;25780;-89
2022/04/21 01:25:16;;;;;;;503.80;221.85;;;;;;;20.65;49.76;98220.27;1793356;80;25668;-89
2022/04/21 01:27:42;;;;;;;509.80;224.15;;;;;;;20.66;49.77;98212.10;1792504;80;25888;-89
2022/04/21 01:30:12;;;;;;;500.62;219.35;;;;;;;20.65;49.79;98217.48;1793231;80;26092;-89
2022/04/21 01:32:44;;;;;;;502.52;220.55;;;;;;;20.66;49.78;98215.69;1793200;80;25643;-90
2022/04/21 01:35:11;;;;;;;496.60;214.00;;;;;;;20.65;49.78;98211.91;1793256;80;26624;-89
2022/04/21 01:43:08;;;;;;;487.82;213.18;;;;;;;20.64;49.82;98220.84;1792814;80;25609;-90
2022/04/21 01:45:35;;;;;;;491.02;210.32;;;;;;;20.64;49.80;98217.28;1793302;80;25652;-89
2022/04/21 01:48:02;;;;;;;496.70;212.90;;;;;;;20.62;49.84;98213.50;1793161;80;25832;-90
2022/04/21 01:50:29;;;;;;;481.00;207.92;;;;;;;20.62;49.87;98214.89;1793214;80;25671;-90
2022/04/21 01:52:58;;;;;;;486.90;210.72;;;;;;;20.62;49.86;98207.94;1793212;80;28184;-89
2022/04/21 01:55:25;;;;;;;481.30;208.35;;;;;;;20.61;49.87;98206.32;1793139;80;25897;-89
2022/04/21 01:57:52;;;;;;;487.05;208.47;;;;;;;20.62;49.87;98210.72;1792970;80;25654;-90
2022/04/21 02:00:18;;;;;;;479.27;206.85;;;;;;;20.62;49.88;98202.36;1792990;80;26574;-89
2022/04/21 02:02:44;;;;;;;481.13;206.15;;;;;;;20.63;49.90;98205.34;1793132;80;25410;-90
2022/04/21 02:05:10;;;;;;;468.93;200.43;;;;;;;20.62;49.90;98202.36;1793346;80;27307;-90
2022/04/21 02:07:46;;;;;;;470.32;201.73;;;;;;;20.62;49.91;98202.36;1793210;80;25867;-90
2022/04/21 02:10:16;;;;;;;480.22;202.68;;;;;;;20.62;49.91;98207.94;1792936;80;25728;-89
2022/04/21 02:12:43;;;;;;;474.58;199.02;;;;;;;20.62;49.91;98200.97;1793406;80;25755;-89
2022/04/21 02:15:10;;;;;;;456.13;194.20;;;;;;;20.63;49.92;98204.53;1793327;80;25659;-89
2022/04/21 02:17:36;;;;;;;467.53;195.53;;;;;;;20.62;49.93;98195.41;1793156;80;28324;-89
2022/04/21 02:20:09;;;;;;;467.22;197.62;;;;;;;20.62;49.91;98202.36;1793124;80;25886;-90
2022/04/21 02:22:35;;;;;;;462.25;197.22;;;;;;;20.62;49.94;98198.19;1768450;79;25814;-90
2022/04/21 02:25:04;;;;;;;465.58;194.07;;;;;;;20.62;49.94;98198.19;1793454;80;25707;-89
2022/04/21 02:27:31;;;;;;;464.78;195.00;;;;;;;20.63;49.95;98195.60;1793396;80;25407;-90
2022/04/21 02:29:57;;;;;;;458.05;190.88;;;;;;;20.62;49.96;98195.99;1793401;80;27406;-90
2022/04/21 02:32:23;;;;;;;452.43;186.88;;;;;;;20.61;49.96;98194.41;1793477;80;25585;-90
2022/04/21 02:34:49;;;;;;;450.80;188.42;;;;;;;20.60;49.99;98194.99;1793494;80;25608;-90
2022/04/21 02:37:15;;;;;;;447.87;188.10;;;;;;;20.61;49.98;98195.19;1793467;80;26610;-90
2022/04/21 02:39:41;;;;;;;457.98;192.35;;;;;;;20.61;50.00;98193.80;1793405;80;25676;-89
2022/04/21 02:42:09;;;;;;;442.77;183.85;;;;;;;20.62;49.98;98186.25;1793397;80;27456;-90
2022/04/21 02:44:35;;;;;;;444.97;183.03;;;;;;;20.61;50.00;98193.80;1792959;80;25760;-89
2022/04/21 02:47:04;;;;;;;442.60;179.25;;;;;;;20.62;49.99;98193.21;1793378;80;25465;-90
2022/04/21 02:49:30;;;;;;;439.20;182.72;;;;;;;20.63;50.00;98201.75;1793380;80;25690;-90
2022/04/21 02:51:56;;;;;;;442.50;178.78;;;;;;;20.61;50.02;98198.58;1793071;80;25456;-90
2022/04/21 02:57:22;;;;;;;432.80;176.70;;;;;;;20.62;50.02;98201.56;1792965;80;25573;-89
2022/04/21 02:59:57;;;;;;;434.45;178.72;;;;;;;20.61;50.00;98200.75;1793180;80;25581;-89
2022/04/21 03:02:24;;;;;;;429.62;173.13;;;;;;;20.60;50.02;98196.97;1793367;80;25724;-90
2022/04/21 03:04:52;;;;;;;420.65;174.27;;;;;;;20.61;50.05;98202.76;1793404;80;25601;-89
2022/04/21 03:07:23;;;;;;;423.78;172.37;;;;;;;20.60;50.04;98199.17;1793031;80;28261;-90
2022/04/21 03:09:53;;;;;;;423.35;174.82;;;;;;;20.60;50.05;98188.62;1792944;80;25747;-90
2022/04/21 03:12:26;;;;;;;426.02;169.80;;;;;;;20.59;50.06;98192.02;1793497;79;25394;-89
2022/04/21 03:14:53;;;;;;;420.30;170.30;;;;;;;20.59;50.09;98187.84;1793030;80;25892;-90
2022/04/21 03:17:19;;;;;;;421.20;169.35;;;;;;;20.59;50.06;98185.64;1793368;80;25419;-89
2022/04/21 03:19:45;;;;;;;425.55;165.22;;;;;;;20.59;50.08;98187.03;1793348;80;28119;-90
2022/04/21 03:25:07;;;;;;;413.33;163.92;;;;;;;20.60;50.08;98178.87;1796800;79;25571;-90
2022/04/21 03:27:33;;;;;;;411.73;162.45;;;;;;;20.60;50.07;98185.25;1797687;79;26499;-90
2022/04/21 03:30:06;;;;;;;412.80;161.68;;;;;;;20.60;50.09;98190.01;1797793;79;25433;-90
2022/04/21 03:32:33;;;;;;;406.73;162.53;;;;;;;20.59;50.10;98189.23;1797848;79;27376;-89
2022/04/21 03:35:00;;;;;;;407.35;160.93;;;;;;;20.58;50.10;98187.62;1794468;79;26009;-90
2022/04/21 03:37:27;;;;;;;408.83;156.47;;;;;;;20.58;50.13;98182.67;1797577;79;25715;-89
2022/04/21 03:39:53;;;;;;;405.95;159.48;;;;;;;20.58;50.13;98179.89;1797678;79;25746;-89
2022/04/21 03:42:27;;;;;;;402.37;156.87;;;;;;;20.58;50.13;98175.70;1797884;79;25672;-89
2022/04/21 03:44:54;;;;;;;404.15;159.90;;;;;;;20.58;50.13;98175.09;1797988;79;27487;-90
2022/04/21 03:47:21;;;;;;;399.20;152.82;;;;;;;20.59;50.13;98167.55;1797736;79;25698;-90
2022/04/21 03:49:48;;;;;;;391.15;151.47;;;;;;;20.58;50.15;98170.92;1797909;79;25951;-89
2022/04/21 03:52:14;;;;;;;395.48;152.72;;;;;;;20.58;50.16;98170.14;1797683;79;25698;-90
2022/04/21 03:54:41;;;;;;;396.52;153.75;;;;;;;20.58;50.15;98184.84;1798226;79;25385;-90
2022/04/21 03:57:07;;;;;;;393.05;151.68;;;;;;;20.59;50.16;98189.82;1797768;79;27375;-90
2022/04/21 03:59:35;;;;;;;392.50;150.65;;;;;;;20.59;50.15;98199.56;1797829;79;25909;-89
2022/04/21 04:02:04;;;;;;;393.85;150.72;;;;;;;20.59;50.16;98193.99;1797815;79;25474;-90
2022/04/21 04:04:35;;;;;;;391.98;146.95;;;;;;;20.58;50.17;98184.06;1797542;79;25797;-89
2022/04/21 04:12:34;;;;;;;377.60;143.45;;;;;;;20.58;50.18;98177.88;1797362;79;25370;-89
2022/04/21 04:15:03;;;;;;;374.32;141.95;;;;;;;20.59;50.19;98176.70;1797002;79;25719;-89
2022/04/21 04:17:29;;;;;;;371.60;142.35;;;;;;;20.57;50.21;98173.52;1797884;79;25744;-89
2022/04/21 04:19:57;;;;;;;380.70;144.00;;;;;;;20.55;50.23;98182.25;1797612;79;25576;-89
2022/04/21 04:22:23;;;;;;;373.45;142.28;;;;;;;20.56;50.22;98187.23;1797348;79;27649;-89
2022/04/21 04:24:54;;;;;;;378.95;142.55;;;;;;;20.55;50.25;98189.80;1797279;79;25782;-89
2022/04/21 04:27:16;;;;;;;367.13;138.65;;;;;;;20.57;50.26;98191.60;1794917;79;25821;-90
2022/04/21 04:29:42;;;;;;;363.95;138.40;;;;;;;20.57;50.25;98193.00;1797017;79;25776;-89
2022/04/21 04:32:08;;;;;;;356.90;135.22;;;;;;;20.57;50.26;98198.56;1797080;79;25738;-90
2022/04/21 04:34:34;;;;;;;365.82;138.28;;;;;;;20.57;50.26;98190.21;1792710;79;27554;-89
2022/04/21 04:37:00;;;;;;;362.30;135.63;;;;;;;20.58;50.26;98192.41;1795716;79;25774;-89
2022/04/21 04:39:26;;;;;;;358.25;137.82;;;;;;;20.56;50.29;98203.32;1797838;79;25438;-89
2022/04/21 04:44:36;;;;;;;361.05;135.70;;;;;;;20.57;50.32;98206.91;1797424;79;25442;-89
2022/04/21 04:47:02;;;;;;;346.57;130.50;;;;;;;20.58;50.32;98209.11;1797975;79;27378;-89
2022/04/21 04:49:28;;;;;;;349.65;132.93;;;;;;;20.58;50.33;98217.46;1797589;79;25900;-90
2022/04/21 04:51:55;;;;;;;345.75;135.22;;;;;;;20.58;50.34;98219.63;1797668;79;26169;-90
2022/04/21 04:54:21;;;;;;;354.27;134.87;;;;;;;20.58;50.34;98227.98;1797777;79;25820;-89
2022/04/21 04:56:48;;;;;;;345.37;130.22;;;;;;;20.58;50.35;98221.64;1797805;79;25731;-89
2022/04/21 04:59:14;;;;;;;352.13;133.20;;;;;;;20.57;50.36;98219.44;1797587;79;27412;-89
2022/04/21 05:01:45;;;;;;;347.02;132.70;;;;;;;20.58;50.38;98225.20;1797692;79;25652;-89
2022/04/21 05:04:18;;;;;;;332.92;126.67;;;;;;;20.59;50.38;98214.88;1805292;78;25543;-89
2022/04/21 05:06:51;;;;;;;343.05;129.65;;;;;;;20.58;50.36;98208.50;1809976;78;26397;-90
2022/04/21 05:09:24;;;;;;;335.45;124.55;;;;;;;20.59;50.40;98213.48;1813037;78;25679;-90
2022/04/21 05:11:54;;;;;;;330.60;125.97;;;;;;;20.58;50.40;98212.67;1811565;78;27431;-90
2022/04/21 05:14:21;;;;;;;;;;;;;;;20.60;50.40;98217.84;1816016;77;25667;-90
2022/04/21 05:16:48;;;;;;;315.85;121.02;;;;;;;20.60;50.41;98215.88;1811722;78;25611;-90
2022/04/21 05:19:19;;;;;;;334.70;128.20;;;;;;;20.60;50.41;98213.67;1812919;78;26506;-89
2022/04/21 05:21:49;;;;;;;325.52;125.53;;;;;;;20.59;50.43;98199.56;1804316;78;25381;-89
2022/04/21 05:24:17;;;;;;;324.50;124.78;;;;;;;20.60;50.46;98201.14;1809469;78;28180;-88
2022/04/21 05:26:48;;;;;;;319.43;122.98;;;;;;;20.59;50.45;98194.80;1797494;79;25758;-89
2022/04/21 05:32:05;;;;;;;320.33;122.35;;;;;;;20.61;50.51;98196.58;1802790;79;25746;-90
2022/04/21 05:34:33;;;;;;;311.20;119.97;;;;;;;20.61;50.50;98203.53;1801185;79;25674;-90
2022/04/21 05:37:02;;;;;;;317.95;122.20;;;;;;;20.62;50.51;98209.33;1776312;79;27035;-90
2022/04/21 05:39:30;;;;;;;309.10;118.50;;;;;;;20.63;50.50;98219.27;1804658;79;25790;-90
2022/04/21 05:41:58;;;;;;;310.45;118.80;;;;;;;20.64;50.53;98220.84;1787728;78;25740;-89
2022/04/21 05:44:27;;;;;;;307.05;118.20;;;;;;;20.65;50.54;98220.27;1800269;79;25756;-89
2022/04/21 05:46:54;;;;;;;295.45;116.25;;;;;;;20.65;50.57;98207.73;1799939;79;25379;-90
2022/04/21 05:49:21;;;;;;;316.40;120.15;;;;;;;20.66;50.57;98210.71;1796915;79;28120;-90
2022/04/21 05:51:48;;;;;;;305.23;118.40;;;;;;;20.67;50.59;98213.10;1809391;79;25580;-89
2022/04/21 05:54:15;;;;;;;297.15;115.22;;;;;;;20.71;50.57;98213.70;1814667;79;25636;-90
2022/04/21 05:56:43;;;;;;;293.23;114.47;;;;;;;20.73;50.59;98219.69;1815220;79;25737;-89
2022/04/21 05:59:10;;;;;;;298.30;114.90;;;;;;;20.75;50.59;98222.89;1815399;79;25656;-90
2022/04/21 06:01:36;;;;;;;267.00;106.37;;;;;;;20.77;50.64;98221.88;1814650;79;27413;-89
2022/04/21 06:04:03;;;;;;;257.43;102.65;;;;;;;20.78;50.63;98224.27;1815070;79;25623;-89
2022/04/21 06:06:29;;;;;;;251.15;99.75;;;;;;;20.79;50.64;98218.92;1815046;79;25465;-89
2022/04/21 06:08:56;;;;;;;239.45;95.83;;;;;;;20.80;50.68;98219.11;1815129;79;26484;-89
2022/04/21 06:11:23;;;;;;;224.25;90.30;;;;;;;20.84;50.68;98226.68;1815141;79;25401;-90
2022/04/21 06:13:51;;;;;;;223.82;87.53;;;;;;;20.86;50.71;98227.88;1814658;79;27444;-89
2022/04/21 06:16:17;;;;;;;207.55;83.97;;;;;;;20.88;50.71;98232.46;1814914;79;25418;-89
2022/04/21 06:18:44;;;;;;;199.68;79.70;;;;;;;20.92;50.71;98224.13;1815152;78;25659;-90
2022/04/21 06:21:11;;;;;;;201.22;78.70;;;;;;;20.97;50.73;98221.55;1814742;79;25387;-90
2022/04/21 06:23:37;;;;;;;181.82;73.78;;;;;;;21.01;50.75;98220.37;1815134;79;25691;-90
2022/04/21 06:26:04;;;;;;;174.72;72.65;;;;;;;21.05;50.81;98218.41;1811368;78;28158;-90
2022/04/21 06:28:31;;;;;;;169.15;68.52;;;;;;;21.09;50.83;98212.82;1814592;79;25457;-90
2022/04/21 06:30:58;;;;;;;167.20;67.53;;;;;;;21.13;50.90;98218.41;1814793;79;25665;-90
2022/04/21 06:33:24;;;;;;;153.65;63.28;;;;;;;21.15;51.03;98222.38;1815123;79;25686;-90
2022/04/21 06:35:51;;;;;;;142.32;59.98;;;;;;;21.19;51.08;98220.38;1815157;79;25426;-91
2022/04/21 06:38:17;;;;;;;134.45;57.48;;;;;;;21.23;51.21;98216.80;1815100;79;27363;-89
2022/04/21 06:40:43;;;;;;;135.37;57.80;;;;;;;21.26;51.27;98222.39;1815058;79;25603;-90
2022/04/21 06:48:42;;;;;;;115.95;49.67;;;;;;;21.40;51.46;98234.14;1814758;79;25418;-90
2022/04/21 06:51:09;;;;;;;122.30;50.17;;;;;;;21.42;51.45;98230.34;1814957;79;26739;-90
2022/04/21 06:53:36;;;;;;;115.08;48.63;;;;;;;21.45;51.48;98234.34;1814989;79;25609;-90
2022/04/21 06:56:04;;;;;;;116.90;48.52;;;;;;;21.47;51.47;98238.13;1815131;78;25672;-91
2022/04/21 06:58:31;;;;;;;118.20;50.52;;;;;;;21.47;51.48;98239.52;1814647;79;25889;-90
2022/04/21 07:00:57;;;;;;;116.05;48.15;;;;;;;21.47;51.52;98238.13;1815018;79;25697;-91
2022/04/21 07:03:23;;;;;;;107.00;46.48;;;;;;;21.46;51.55;98240.11;1815100;79;27451;-90
2022/04/21 07:05:51;;;;;;;106.40;46.40;;;;;;;21.45;51.58;98237.13;1815069;78;25446;-90
2022/04/21 07:08:18;;;;;;;102.45;45.10;;;;;;;21.47;51.60;98247.89;1814881;79;25392;-89
2022/04/21 07:10:45;;;;;;;101.67;45.23;;;;;;;21.47;51.62;98242.31;1815079;79;25733;-90
2022/04/21 07:13:11;;;;;;;98.72;44.10;;;;;;;21.47;51.66;98241.70;1815274;79;25431;-90
2022/04/21 07:15:40;;;;;;;100.95;42.73;;;;;;;21.46;51.67;98237.91;1815281;79;27379;-91
2022/04/21 07:18:07;;;;;;;105.60;44.33;;;;;;;21.46;51.70;98237.33;1815096;79;25917;-91
2022/04/21 07:20:34;;;;;;;94.97;42.43;;;;;;;21.47;51.71;98238.13;1811727;79;25724;-90
2022/04/21 07:23:01;;;;;;;93.70;41.23;;;;;;;21.47;51.74;98234.73;1814805;79;26513;-91
2022/04/21 07:25:28;;;;;;;91.55;40.83;;;;;;;21.48;51.74;98232.75;1811513;78;25663;-90
2022/04/21 07:27:55;;;;;;;94.80;39.98;;;;;;;21.50;51.75;98233.16;1798478;79;27539;-91
2022/04/21 07:30:21;;;;;;;90.65;39.63;;;;;;;21.49;51.74;98229.56;1776532;80;25750;-91
2022/04/21 07:32:48;;;;;;;93.55;39.90;;;;;;;21.50;51.71;98235.33;1780110;79;25739;-90
2022/04/21 07:35:17;;;;;;;87.15;38.53;;;;;;;21.52;51.71;98230.74;1788324;80;26620;-90
2022/04/21 07:37:44;;;;;;;87.97;37.50;;;;;;;21.53;51.67;98233.75;1788543;79;25984;-90
2022/04/21 07:40:11;;;;;;;86.63;38.20;;;;;;;21.53;51.61;98237.31;1788569;80;27338;-91
2022/04/21 07:42:37;;;;;;;86.78;37.38;;;;;;;21.54;51.59;98236.14;1789015;80;25698;-91
2022/04/21 07:45:05;;;;;;;82.37;37.55;;;;;;;21.55;51.57;98230.75;1788900;80;25696;-91
2022/04/21 07:47:31;;;;;;;80.42;36.35;;;;;;;21.55;51.55;98236.33;1788208;80;25828;-90
2022/04/21 07:49:58;;;;;;;83.12;37.40;;;;;;;21.55;51.48;98236.92;1788860;80;25721;-90
2022/04/21 07:55:18;;;;;;;82.57;35.75;;;;;;;21.55;51.41;98243.30;1788172;80;25762;-90
2022/04/21 07:57:47;;;;;;;74.72;34.13;;;;;;;21.56;51.35;98244.88;1788148;80;25724;-90
2022/04/21 08:00:16;;;;;;;76.80;33.92;;;;;;;21.56;51.30;98237.91;1789871;80;25694;-90
2022/04/21 08:02:45;;;;;;;75.33;34.73;;;;;;;21.58;51.27;98242.31;1790450;80;25654;-90
2022/04/21 08:05:14;;;;;;;76.35;35.17;;;;;;;21.56;51.25;98246.89;1789541;80;27441;-89
2022/04/21 08:07:41;;;;;;;70.70;32.95;;;;;;;21.56;51.23;98239.31;1789892;80;25633;-91
2022/04/21 08:10:10;;;;;;;68.80;32.55;;;;;;;21.59;51.23;98248.08;1789967;79;25677;-91
2022/04/21 08:12:49;;;;;;;69.95;31.48;;;;;;;21.61;51.22;98245.08;1789957;79;25643;-90
2022/04/21 08:15:28;;;;;;;69.40;32.15;;;;;;;21.62;51.19;98247.28;1786572;80;25650;-90
2022/04/21 08:18:04;;;;;;;74.25;33.08;;;;;;;21.63;51.15;98247.47;1789920;79;27487;-90
2022/04/21 08:20:33;;;;;;;66.53;30.92;;;;;;;21.63;51.08;98245.49;1789857;79;25711;-89
2022/04/21 08:22:59;;;;;;;65.08;31.30;;;;;;;21.64;51.07;98248.47;1789867;80;25578;-90
2022/04/21 08:33:39;;;;;;;64.30;29.95;;;;;;;21.67;50.87;98241.28;1789558;80;25399;-90
2022/04/21 08:36:06;;;;;;;61.48;28.50;;;;;;;21.71;50.83;98239.90;1789960;80;25662;-90
2022/04/21 08:38:33;;;;;;;60.70;29.05;;;;;;;21.71;50.79;98244.89;1789852;80;25732;-91
2022/04/21 08:41:08;;;;;;;62.20;28.83;;;;;;;21.72;50.77;98240.09;1789657;80;25453;-91
2022/04/21 08:43:35;;;;;;;61.08;28.10;;;;;;;21.71;50.75;98240.70;1789872;79;28431;-91
2022/04/21 08:46:04;;;;;;;58.90;28.40;;;;;;;21.71;50.72;98240.70;1789524;80;25470;-90
2022/04/21 08:48:31;;;;;;;58.50;27.50;;;;;;;21.73;50.70;98238.91;1789963;80;26286;-91
2022/04/21 08:50:59;;;;;;;58.70;27.98;;;;;;;21.74;50.68;98241.30;1790080;79;25720;-90
2022/04/21 08:53:25;;;;;;;60.88;27.15;;;;;;;21.75;50.66;98243.47;1789944;79;25605;-90
2022/04/21 08:55:52;;;;;;;60.83;28.02;;;;;;;21.76;50.65;98238.92;1790022;80;27421;-90
2022/04/21 08:58:20;;;;;;;56.42;27.77;;;;;;;21.78;50.63;98239.91;1789748;79;25675;-91
2022/04/21 09:00:47;;;;;;;55.65;27.17;;;;;;;21.78;50.59;98239.33;1790005;80;25461;-91
2022/04/21 09:03:14;;;;;;;58.58;27.20;;;;;;;21.78;50.59;98232.36;1789474;79;25751;-90
2022/04/21 09:05:44;;;;;;;53.25;25.72;;;;;;;21.80;50.54;98228.58;1789881;79;25775;-90
2022/04/21 09:08:22;;;;;;;54.38;26.10;;;;;;;21.81;50.53;98232.95;1789520;80;26746;-91
2022/04/21 09:11:09;;;;;;;51.50;25.17;;;;;;;21.81;50.52;98230.16;1786509;79;25569;-91
2022/04/21 09:13:41;;;;;;;53.78;25.88;;;;;;;21.83;50.49;98234.53;1789124;80;25614;-90
2022/04/21 09:16:10;;;;;;;49.33;24.57;;;;;;;21.82;50.48;98225.39;1789931;80;25693;-91
2022/04/21 09:18:45;;;;;;;51.58;25.10;;;;;;;21.82;50.45;98219.81;1789902;79;25448;-90
2022/04/21 09:21:17;;;;;;;55.67;25.27;;;;;;;21.84;50.41;98227.78;1789963;80;27465;-89
2022/04/21 09:23:48;;;;;;;51.98;24.35;;;;;;;21.83;50.40;98225.58;1789772;79;25662;-90
2022/04/21 09:26:20;;;;;;;49.08;23.75;;;;;;;21.84;50.38;98219.41;1795392;79;25471;-89
2022/04/21 09:28:54;;;;;;;50.20;23.90;;;;;;;21.84;50.38;98217.40;1768816;80;25685;-89
2022/04/21 09:31:21;;;;;;;52.73;24.77;;;;;;;21.84;50.37;98219.41;1800906;79;25394;-88
2022/04/21 09:33:47;;;;;;;50.10;23.95;;;;;;;21.86;50.37;98217.00;1769549;81;27423;-88
2022/04/21 09:36:14;;;;;;;48.08;23.05;;;;;;;21.86;50.38;98212.81;1797869;79;25662;-88
2022/04/21 09:38:41;;;;;;;50.92;23.62;;;;;;;21.86;50.41;98210.83;1769253;81;25646;-88
2022/04/21 09:41:14;;;;;;;45.90;22.60;;;;;;;21.85;50.44;98209.84;1800883;79;25687;-88
2022/04/21 09:43:42;;;;;;;44.85;22.80;;;;;;;21.85;50.45;98207.85;1767853;81;25676;-89
2022/04/21 09:46:17;;;;;;;48.55;22.70;;;;;;;21.86;50.45;98208.63;1800153;79;27593;-91
2022/04/21 09:48:46;;;;;;;46.53;23.22;;;;;;;21.86;50.43;98201.06;1765655;81;26128;-91
2022/04/21 09:51:25;;;;;;;46.00;21.52;;;;;;;21.86;50.46;98202.46;1800511;79;25463;-90
2022/04/21 09:53:57;;;;;;;43.60;22.25;;;;;;;21.88;50.42;98202.06;1767908;81;25638;-90
2022/04/21 09:56:37;;;;;;;41.15;21.07;;;;;;;21.88;50.41;98206.25;1800595;79;25681;-90
2022/04/21 09:59:08;;;;;;;43.87;21.93;;;;;;;21.87;50.42;98198.47;1769553;81;27416;-89
2022/04/21 10:01:41;;;;;;;42.30;21.20;;;;;;;21.88;50.39;98197.88;1800880;79;25671;-89
2022/04/21 10:04:17;;;;;;;45.60;21.68;;;;;;;21.89;50.36;98200.85;1767520;80;25652;-90
2022/04/21 10:06:44;;;;;;;41.40;20.25;;;;;;;21.89;50.35;98191.09;1799981;79;25632;-89
2022/04/21 10:09:13;;;;;;;39.67;19.62;;;;;;;21.88;50.34;98191.68;1768071;81;25564;-90
2022/04/21 10:11:42;;;;;;;42.50;20.27;;;;;;;21.86;50.29;98184.92;1801035;79;27380;-90
2022/04/21 10:14:15;;;;;;;40.88;20.72;;;;;;;21.86;50.33;98188.52;1767433;81;25886;-91
2022/04/21 10:16:42;;;;;;;43.23;20.68;;;;;;;21.88;50.30;98195.87;1800644;79;25411;-90
2022/04/21 10:19:12;;;;;;;40.23;19.77;;;;;;;21.89;50.29;98189.11;1769229;81;25735;-90
2022/04/21 10:21:54;;;;;;;39.07;19.50;;;;;;;21.89;50.32;98182.72;1801076;79;25614;-90
2022/04/21 10:24:26;;;;;;;37.00;18.98;;;;;;;21.88;50.29;98183.31;1769498;81;27483;-90
2022/04/21 10:26:54;;;;;;;44.73;20.37;;;;;;;21.87;50.25;98186.50;1766715;80;25771;-90
2022/04/21 10:29:25;;;;;;;36.30;19.17;;;;;;;21.86;50.25;98187.71;1789115;80;25481;-90
2022/04/21 10:32:03;;;;;;;37.63;19.05;;;;;;;21.86;50.23;98185.73;1789057;80;26598;-90
2022/04/21 10:34:42;;;;;;;37.75;18.80;;;;;;;21.87;50.20;98186.50;1789479;80;25399;-90
2022/04/21 10:37:20;;;;;;;36.98;18.52;;;;;;;21.87;50.20;98179.53;1790201;79;27430;-90
2022/04/21 10:40:09;;;;;;;34.78;17.85;;;;;;;21.87;50.23;98183.12;1789500;80;25601;-90
2022/04/21 10:43:03;;;;;;;38.85;19.10;;;;;;;21.85;50.38;98180.55;1786402;79;25968;-91
2022/04/21 10:45:27;;;;;;;35.95;18.25;;;;;;;21.83;50.41;98187.13;1788308;80;25613;-91
2022/04/21 10:48:14;;;;;;;36.27;17.47;;;;;;;21.81;50.48;98179.16;1790427;79;25463;-92
2022/04/21 10:50:45;;;;;;;35.20;17.95;;;;;;;21.81;50.50;98181.95;1789767;80;27463;-91
2022/04/21 10:58:50;;;;;;;35.35;17.70;;;;;;;21.80;50.54;98181.75;1789815;80;25610;-90
2022/04/21 11:01:22;;;;;;;33.60;17.48;;;;;;;21.79;50.58;98179.56;1789781;79;25586;-91
2022/04/21 11:04:11;;;;;;;32.98;17.57;;;;;;;21.78;50.58;98177.97;1789742;79;27348;-91
2022/04/21 11:06:51;;;;;;;32.38;16.52;;;;;;;21.78;50.55;98166.82;1790088;80;25601;-91
2022/04/21 11:09:42;;;;;;;33.02;16.42;;;;;;;21.78;50.54;98164.63;1789942;79;25480;-92
2022/04/21 11:12:12;;;;;;;32.42;16.80;;;;;;;21.77;50.56;98165.83;1790026;80;25861;-90
2022/04/21 11:14:39;;;;;;;31.15;15.72;;;;;;;21.77;50.52;98164.44;1789902;79;25388;-91
2022/04/21 11:17:08;;;;;;;31.60;16.57;;;;;;;21.77;50.51;98167.22;1789881;79;26847;-91
2022/04/21 11:19:53;;;;;;;32.23;16.17;;;;;;;21.75;50.52;98167.59;1789919;79;25835;-90
2022/04/21 11:22:42;;;;;;;31.25;16.17;;;;;;;21.74;50.56;98164.62;1789741;80;25706;-91
2022/04/21 11:25:09;;;;;;;31.95;15.38;;;;;;;21.74;50.56;98161.02;1789738;79;26465;-91
2022/04/21 11:27:42;;;;;;;32.95;16.30;;;;;;;21.73;50.54;98165.02;1789778;79;25604;-91
2022/04/21 11:30:13;;;;;;;31.60;16.23;;;;;;;21.73;50.56;98160.84;1789997;80;26892;-91
2022/04/21 11:32:49;;;;;;;31.48;15.93;;;;;;;21.72;50.57;98163.41;1789078;80;25646;-91
2022/04/21 11:35:16;;;;;;;34.78;16.05;;;;;;;21.71;50.57;98159.04;1789833;79;25750;-90
2022/04/21 11:37:57;;;;;;;30.80;15.78;;;;;;;21.68;50.60;98155.84;1789655;79;25646;-90
2022/04/21 11:40:36;;;;;;;30.40;15.18;;;;;;;21.66;50.59;98158.84;1789241;80;25448;-91
2022/04/21 11:43:16;;;;;;;32.38;15.60;;;;;;;21.64;50.62;98158.44;1790332;80;28119;-90
2022/04/21 11:45:57;;;;;;;29.87;14.93;;;;;;;21.66;50.58;98156.06;1789694;80;25761;-90
2022/04/21 11:48:30;;;;;;;31.42;15.60;;;;;;;21.65;50.57;98160.05;1790061;79;25571;-90
2022/04/21 11:50:58;;;;;;;28.87;14.98;;;;;;;21.62;50.55;98156.67;1789945;80;26690;-92
2022/04/21 11:53:33;;;;;;;29.10;14.47;;;;;;;21.60;50.58;98150.69;1786762;80;25647;-91
2022/04/21 11:55:58;;;;;;;28.02;14.00;;;;;;;21.56;50.60;98147.93;1789728;80;25999;-91
2022/04/21 11:58:32;;;;;;;29.80;14.58;;;;;;;21.54;50.65;98162.27;1789843;80;25621;-90
2022/04/21 12:06:58;;;;;;;28.95;14.80;;;;;;;21.51;50.73;98149.72;1789743;80;25685;-89
2022/04/21 12:09:33;;;;;;;27.75;13.68;;;;;;;21.49;50.72;98139.56;1795005;79;27382;-88
2022/04/21 12:12:01;;;;;;;27.55;12.70;;;;;;;21.48;50.70;98144.36;1759226;80;25741;-89